Terminal Aerodrome Forecast
Issued by NWS

Current Version | Previous Version | Text Only | Print | Product List | Glossary Off
Versions: 1 2 3 4 5 6 7 8 9 10 11 12 13 14 15 16 17 18 19 20 21 22 23 24

000
FTUS41 KRLX 032300
TAFCKB
TAF
KCKB 032327Z 0400/0424 20009KT 6SM -RA BR OVC025
      TEMPO 0400/0404 21009G18KT
     FM040400 21010G15KT 6SM -RA OVC023
     FM040600 23009KT 3SM -RA BR OVC009
     FM041000 27005KT 3/4SM -RA BR OVC003=

USA.gov is the U.S. government's official web portal to all federal, state and local government web resources and services.